Urbandale, Iowa
Current Conditions -  °F | °C
As of 1:54 PM on Friday 31 Oct 2014 (Local Time) from KDSM Reporting Station
Clear Clear  
Wind Chill: 35°   Ceiling: Unl
Heat Index: 42°   Visibility: 10mi
Dew Point: 19°   Wind: 15mph
Humidity: 40%   Direction: 10°N
Pressure: 30.48"   Gusts: 20mph
Location:  41.63°N, 93.71°W
Report Text: KDSM 311854Z 01013G17KT 10SM CLR 06/M07 A3048 RMK AO2 SLP327 T00561072
Loading
Personal Weather Stations






























Interactive Weather Map New forecast layout! Learn more

10-Day Weather Forecast

Advertisements
Track Severe Weather on mobile